createdAt,value
2023-08-14T00:02:35.335Z,22.92
2023-08-14T00:07:36.949Z,22.91
2023-08-14T00:12:38.667Z,22.89
2023-08-14T00:17:40.582Z,22.83
2023-08-14T00:22:42.268Z,22.69
2023-08-14T00:27:43.888Z,22.82
2023-08-14T00:32:45.591Z,22.75
2023-08-14T00:37:48.689Z,22.61
2023-08-14T00:42:50.431Z,22.63
2023-08-14T00:47:52.742Z,22.55
2023-08-14T00:52:57.116Z,22.55
2023-08-14T00:58:00.170Z,22.46
2023-08-14T01:03:02.875Z,22.49
2023-08-14T01:08:04.764Z,22.40
2023-08-14T01:13:14.357Z,22.13
2023-08-14T01:18:18.302Z,22.31
2023-08-14T01:23:30.088Z,22.32
2023-08-14T01:28:32.032Z,22.30
2023-08-14T01:33:33.718Z,22.31
2023-08-14T01:38:51.498Z,22.27
2023-08-14T01:43:56.435Z,22.16
2023-08-14T01:49:00.051Z,22.19
2023-08-14T01:54:01.867Z,22.18
2023-08-14T01:59:03.680Z,22.13
2023-08-14T02:04:07.746Z,21.90
2023-08-14T02:09:09.502Z,21.92
2023-08-14T02:14:11.217Z,21.72
2023-08-14T02:19:13.029Z,21.73
2023-08-14T02:24:14.757Z,21.82
2023-08-14T02:29:16.487Z,21.80
2023-08-14T02:34:57.267Z,21.80
2023-08-14T02:39:59.019Z,21.78
2023-08-14T02:45:01.533Z,21.73
2023-08-14T02:50:03.196Z,21.72
2023-08-14T02:55:06.566Z,21.69
2023-08-14T03:00:09.144Z,21.67
2023-08-14T03:05:10.808Z,21.64
2023-08-14T03:10:12.479Z,21.57
2023-08-14T03:15:14.108Z,21.57
2023-08-14T03:20:16.053Z,21.35
2023-08-14T03:25:17.897Z,21.45
2023-08-14T03:30:19.538Z,21.41
2023-08-14T03:35:21.451Z,21.43
2023-08-14T03:40:23.264Z,21.36
2023-08-14T03:45:25.063Z,21.37
2023-08-14T03:50:28.738Z,21.37
2023-08-14T03:55:30.423Z,21.31
2023-08-14T04:00:32.420Z,21.14
2023-08-14T04:05:39.114Z,21.30
2023-08-14T04:10:41.024Z,21.24
2023-08-14T04:15:43.200Z,21.28
2023-08-14T04:20:44.838Z,21.29
2023-08-14T04:25:46.505Z,21.28
2023-08-14T04:30:48.352Z,21.33
2023-08-14T04:35:50.185Z,21.25
2023-08-14T04:40:51.932Z,21.30
2023-08-14T04:45:54.452Z,20.97
2023-08-14T04:50:56.262Z,21.23
2023-08-14T04:55:58.021Z,21.40
2023-08-14T05:00:59.781Z,21.54
2023-08-14T05:06:02.776Z,21.57
2023-08-14T05:11:04.513Z,21.63
2023-08-14T05:16:08.844Z,21.60
2023-08-14T05:21:12.498Z,21.46
2023-08-14T05:26:14.280Z,21.75
2023-08-14T05:31:15.928Z,21.73
2023-08-14T05:36:17.645Z,21.88
2023-08-14T05:41:20.120Z,22.06
2023-08-14T05:46:24.994Z,21.84
2023-08-14T05:51:26.640Z,21.89
2023-08-14T05:56:28.277Z,22.41
2023-08-14T06:01:29.911Z,22.48
2023-08-14T06:06:31.573Z,22.42
2023-08-14T06:11:33.280Z,22.46
2023-08-14T06:16:35.030Z,22.46
2023-08-14T06:21:36.707Z,23.04
2023-08-14T06:26:38.382Z,23.39
2023-08-14T06:31:40.080Z,23.64
2023-08-14T06:36:41.839Z,23.57
2023-08-14T06:41:43.503Z,23.65
2023-08-14T06:46:45.249Z,23.87
2023-08-14T06:51:46.942Z,24.18
2023-08-14T06:56:48.626Z,24.14
2023-08-14T07:01:50.340Z,24.31
2023-08-14T07:06:51.977Z,24.46
2023-08-14T07:11:53.710Z,24.52
2023-08-14T07:16:55.486Z,24.63
2023-08-14T07:21:57.185Z,24.63
2023-08-14T07:26:58.998Z,24.86
2023-08-14T07:32:00.693Z,24.65
2023-08-14T07:37:02.360Z,24.84
2023-08-14T07:42:04.129Z,24.99
2023-08-14T07:47:06.888Z,25.05
2023-08-14T07:52:10.445Z,24.93
2023-08-14T07:57:12.103Z,25.05
2023-08-14T08:02:13.909Z,25.28
2023-08-14T08:07:16.051Z,25.28
2023-08-14T08:12:18.157Z,25.54
2023-08-14T08:17:19.994Z,25.41
2023-08-14T08:22:22.005Z,25.43
2023-08-14T08:27:23.946Z,25.49
2023-08-14T08:32:26.499Z,25.64
2023-08-14T08:37:28.977Z,25.83
2023-08-14T08:42:30.639Z,25.78
2023-08-14T08:47:36.151Z,25.65
2023-08-14T08:52:38.165Z,25.97
2023-08-14T08:57:40.149Z,25.96
2023-08-14T09:02:41.926Z,25.77
2023-08-14T09:07:44.593Z,25.91
2023-08-14T09:12:46.264Z,26.15
2023-08-14T09:17:47.891Z,26.32
2023-08-14T09:22:49.739Z,26.04
2023-08-14T09:27:51.476Z,26.19
2023-08-14T09:32:54.316Z,26.17
2023-08-14T09:37:55.994Z,26.27
2023-08-14T09:42:57.984Z,26.54
2023-08-14T09:48:06.674Z,26.30
2023-08-14T09:53:08.612Z,26.68
2023-08-14T09:58:10.961Z,26.81
2023-08-14T10:03:12.770Z,26.83
2023-08-14T10:08:14.827Z,27.12
2023-08-14T10:13:17.221Z,27.43
2023-08-14T10:18:21.001Z,27.33
2023-08-14T10:23:22.832Z,27.28
2023-08-14T10:28:25.051Z,27.45
2023-08-14T10:33:27.210Z,27.45
2023-08-14T10:38:47.586Z,27.71
2023-08-14T10:43:51.744Z,27.62
2023-08-14T10:48:53.663Z,27.69
2023-08-14T10:54:22.741Z,27.61
2023-08-14T10:59:29.162Z,27.59
2023-08-14T11:04:31.810Z,27.71
2023-08-14T11:09:34.974Z,27.60
2023-08-14T11:14:38.933Z,27.40
2023-08-14T11:19:40.687Z,27.13
2023-08-14T11:24:42.748Z,27.25
2023-08-14T11:29:45.347Z,27.16
2023-08-14T11:34:53.886Z,27.19
2023-08-14T11:39:55.605Z,27.14
2023-08-14T11:44:57.237Z,27.13
2023-08-14T11:49:59.084Z,27.10
2023-08-14T11:55:01.548Z,27.12
2023-08-14T12:00:11.343Z,26.92
2023-08-14T12:05:13.022Z,27.05
2023-08-14T12:10:17.649Z,27.25
2023-08-14T12:15:24.269Z,27.50
2023-08-14T12:20:26.612Z,27.55
2023-08-14T12:25:29.729Z,27.84
2023-08-14T12:30:31.550Z,27.83
2023-08-14T12:35:33.186Z,27.79
2023-08-14T12:40:35.321Z,27.93
2023-08-14T12:45:36.941Z,27.80
2023-08-14T12:50:38.591Z,27.65
2023-08-14T12:55:40.275Z,27.71
2023-08-14T13:00:42.092Z,27.91
2023-08-14T13:05:46.039Z,27.38
2023-08-14T13:10:47.692Z,27.56
2023-08-14T13:15:49.312Z,27.49
2023-08-14T13:20:51.185Z,27.42
2023-08-14T13:25:52.854Z,27.62
2023-08-14T13:30:54.606Z,27.72
2023-08-14T13:35:56.264Z,27.81
2023-08-14T13:40:57.997Z,27.76
2023-08-14T13:45:59.766Z,27.73
2023-08-14T13:51:01.522Z,27.66
2023-08-14T13:56:03.190Z,27.88
2023-08-14T14:01:04.838Z,27.94
2023-08-14T14:06:06.708Z,27.88
2023-08-14T14:11:08.444Z,27.74
2023-08-14T14:16:10.098Z,27.74
2023-08-14T14:21:11.773Z,27.82
2023-08-14T14:26:13.452Z,27.89
2023-08-14T14:31:15.060Z,27.88
2023-08-14T14:36:16.702Z,27.81
2023-08-14T14:41:18.379Z,27.72
2023-08-14T14:46:20.060Z,28.29
2023-08-14T14:51:21.758Z,27.97
2023-08-14T14:56:23.456Z,28.42
2023-08-14T15:01:25.096Z,28.31
2023-08-14T15:06:26.776Z,28.48
2023-08-14T15:11:28.366Z,28.27
2023-08-14T15:16:33.083Z,28.65
2023-08-14T15:21:35.191Z,28.40
2023-08-14T15:26:36.811Z,28.65
2023-08-14T15:31:38.505Z,29.07
2023-08-14T15:36:40.138Z,29.16
2023-08-14T15:41:42.847Z,29.26
2023-08-14T15:46:44.465Z,28.96
2023-08-14T15:51:46.086Z,28.72
2023-08-14T15:56:47.764Z,28.56
2023-08-14T16:01:49.360Z,28.79
2023-08-14T16:06:51.001Z,28.74
2023-08-14T16:11:52.636Z,28.96
2023-08-14T16:16:54.387Z,28.96
2023-08-14T16:21:56.124Z,28.72
2023-08-14T16:26:59.707Z,28.77
2023-08-14T16:32:02.127Z,28.56
2023-08-14T16:37:04.711Z,28.69
2023-08-14T16:42:07.199Z,28.44
2023-08-14T16:47:08.904Z,28.54
2023-08-14T16:52:10.508Z,28.49
2023-08-14T16:57:12.110Z,28.36
2023-08-14T17:02:13.739Z,28.31
2023-08-14T17:07:15.397Z,28.32
2023-08-14T17:12:17.338Z,28.09
2023-08-14T17:17:19.419Z,27.54
2023-08-14T17:22:21.288Z,26.92
2023-08-14T17:27:23.274Z,26.65
2023-08-14T17:32:25.227Z,26.39
2023-08-14T17:37:26.943Z,26.41
2023-08-14T17:42:29.357Z,26.36
2023-08-14T17:47:34.805Z,26.10
2023-08-14T17:52:36.551Z,25.90
2023-08-14T17:57:38.380Z,25.99
2023-08-14T18:02:40.115Z,25.95
2023-08-14T18:07:43.192Z,25.93
2023-08-14T18:12:44.922Z,25.97
2023-08-14T18:17:46.718Z,25.96
2023-08-14T18:22:48.410Z,26.02
2023-08-14T18:27:50.287Z,26.00
2023-08-14T18:32:51.952Z,25.96
2023-08-14T18:37:54.294Z,25.93
2023-08-14T18:42:56.031Z,25.80
2023-08-14T18:47:57.695Z,25.82
2023-08-14T18:52:59.372Z,25.69
2023-08-14T18:58:01.055Z,25.63
2023-08-14T19:03:02.866Z,25.55
2023-08-14T19:08:06.591Z,25.53
2023-08-14T19:13:08.300Z,25.46
2023-08-14T19:18:10.011Z,25.39
2023-08-14T19:23:11.657Z,25.34
2023-08-14T19:28:21.761Z,25.29
2023-08-14T19:33:24.192Z,25.26
2023-08-14T19:38:25.850Z,25.26
2023-08-14T19:43:27.785Z,25.21
2023-08-14T19:48:29.390Z,25.13
2023-08-14T19:53:31.171Z,25.06
2023-08-14T19:58:32.830Z,25.00
2023-08-14T20:03:34.567Z,25.00
2023-08-14T20:08:36.285Z,24.91
2023-08-14T20:13:37.963Z,24.89
2023-08-14T20:18:39.704Z,24.84
2023-08-14T20:23:41.345Z,24.80
2023-08-14T20:28:44.290Z,24.75
2023-08-14T20:33:47.006Z,24.70
2023-08-14T20:38:48.976Z,24.70
2023-08-14T20:43:50.618Z,24.70
2023-08-14T20:48:52.302Z,24.61
2023-08-14T20:53:53.993Z,24.63
2023-08-14T20:58:55.626Z,24.65
2023-08-14T21:03:57.302Z,24.63
2023-08-14T21:08:58.988Z,24.55
2023-08-14T21:14:00.607Z,24.53
2023-08-14T21:19:02.483Z,24.48
2023-08-14T21:24:04.464Z,24.49
2023-08-14T21:29:06.260Z,24.49
2023-08-14T21:34:10.629Z,24.46
2023-08-14T21:39:15.190Z,24.43
2023-08-14T21:44:16.926Z,24.46
2023-08-14T21:49:18.567Z,24.42
2023-08-14T21:54:20.205Z,24.38
2023-08-14T21:59:21.885Z,24.39
2023-08-14T22:04:23.847Z,24.39
2023-08-14T22:09:25.557Z,24.39
2023-08-14T22:14:27.421Z,24.38
2023-08-14T22:19:29.016Z,24.35
2023-08-14T22:24:40.226Z,24.34
2023-08-14T22:29:42.665Z,24.38
2023-08-14T22:34:44.314Z,24.36
2023-08-14T22:39:45.970Z,24.32
2023-08-14T22:44:47.683Z,24.30
2023-08-14T22:49:49.298Z,24.29
2023-08-14T22:54:50.920Z,24.26
2023-08-14T22:59:52.495Z,24.30
2023-08-14T23:04:54.168Z,24.28
2023-08-14T23:09:55.764Z,24.25
2023-08-14T23:14:57.444Z,24.25
2023-08-14T23:19:59.110Z,24.26
2023-08-14T23:25:00.696Z,24.25
2023-08-14T23:30:02.405Z,24.29
2023-08-14T23:35:04.999Z,24.26
2023-08-14T23:40:07.156Z,24.27
2023-08-14T23:45:09.024Z,24.26
2023-08-14T23:50:10.695Z,24.29
2023-08-14T23:55:12.433Z,24.30
